Time;durP1;ratioP1;P1;durP2;ratioP2;P2;SDS_P1;SDS_P2;PMS_P1;PMS_P2;Temp;Humidity;BMP_temperature;BMP_pressure;BME280_temperature;BME280_humidity;BME280_pressure;Samples;Min_cycle;Max_cycle;Signal;HPM_P1;HPM_P2
2023/03/12 00:00:26;;;;;;;3.13;3.00;;;;;;;;;;5070930;28;20734;-74
2023/03/12 00:02:51;;;;;;;0.20;0.20;;;;;;;;;;5070614;28;20063;-73
2023/03/12 00:05:16;;;;;;;0.20;0.20;;;;;;;;;;5070295;28;20044;-74
2023/03/12 00:07:42;;;;;;;5.78;5.20;;;;;;;;;;5070793;28;20128;-74
2023/03/12 00:10:07;;;;;;;0.40;0.40;;;;;;;;;;5070618;28;20067;-73
2023/03/12 00:12:33;;;;;;;1.10;1.00;;;;;;;;;;5071078;28;20088;-72
2023/03/12 00:14:59;;;;;;;0.63;0.63;;;;;;;;;;5070734;28;20761;-73
2023/03/12 00:17:25;;;;;;;0.95;0.88;;;;;;;;;;5073027;28;20016;-72
2023/03/12 00:19:51;;;;;;;0.10;0.10;;;;;;;;;;5073711;28;20097;-72
2023/03/12 00:22:17;;;;;;;1.35;0.95;;;;;;;;;;5056143;28;20035;-73
2023/03/12 00:24:42;;;;;;;0.40;0.40;;;;;;;;;;5073787;28;20044;-73
2023/03/12 00:27:07;;;;;;;1.35;1.30;;;;;;;;;;5073876;28;20120;-71
2023/03/12 00:29:34;;;;;;;0.25;0.25;;;;;;;;;;5073148;28;20024;-73
2023/03/12 00:31:59;;;;;;;0.10;0.10;;;;;;;;;;5072402;28;20488;-72
2023/03/12 00:34:25;;;;;;;0.10;0.10;;;;;;;;;;5073527;28;20039;-72
2023/03/12 00:36:50;;;;;;;0.10;0.10;;;;;;;;;;5059144;28;20032;-72
2023/03/12 00:39:16;;;;;;;0.10;0.10;;;;;;;;;;5092560;28;20501;-71
2023/03/12 00:41:41;;;;;;;0.10;0.10;;;;;;;;;;5093393;28;20467;-71
2023/03/12 00:44:06;;;;;;;0.73;0.73;;;;;;;;;;5093821;28;20103;-74
2023/03/12 00:46:32;;;;;;;0.60;0.60;;;;;;;;;;5093781;28;20384;-72
2023/03/12 00:48:58;;;;;;;0.10;0.10;;;;;;;;;;5093812;28;20472;-73
2023/03/12 00:51:23;;;;;;;0.50;0.50;;;;;;;;;;5092181;28;20040;-73
2023/03/12 00:53:49;;;;;;;2.45;1.48;;;;;;;;;;5093340;28;20035;-73
2023/03/12 00:56:15;;;;;;;0.10;0.10;;;;;;;;;;5075325;28;20030;-73
2023/03/12 00:58:41;;;;;;;0.30;0.30;;;;;;;;;;5093382;28;20036;-72
2023/03/12 01:01:07;;;;;;;0.10;0.10;;;;;;;;;;5093381;28;20484;-73
2023/03/12 01:03:32;;;;;;;0.10;0.10;;;;;;;;;;5093038;28;20058;-73
2023/03/12 01:05:58;;;;;;;1.52;1.45;;;;;;;;;;5074952;28;20047;-72
2023/03/12 01:08:23;;;;;;;0.20;0.20;;;;;;;;;;5092051;28;20024;-72
2023/03/12 01:10:48;;;;;;;2.42;2.28;;;;;;;;;;5091409;28;20378;-74
2023/03/12 01:13:14;;;;;;;0.10;0.10;;;;;;;;;;5090031;28;20434;-72
2023/03/12 01:15:39;;;;;;;0.10;0.10;;;;;;;;;;5091215;28;20383;-73
2023/03/12 01:18:05;;;;;;;0.50;0.50;;;;;;;;;;5091329;28;20073;-73
2023/03/12 01:20:30;;;;;;;0.15;0.15;;;;;;;;;;5091087;28;20456;-72
2023/03/12 01:22:56;;;;;;;0.13;0.13;;;;;;;;;;5089490;28;20031;-72
2023/03/12 01:25:21;;;;;;;0.20;0.20;;;;;;;;;;5090418;28;20051;-73
2023/03/12 01:27:47;;;;;;;0.50;0.47;;;;;;;;;;5092524;28;20028;-72
2023/03/12 01:30:13;;;;;;;0.40;0.40;;;;;;;;;;5091680;28;20035;-72
2023/03/12 01:32:38;;;;;;;0.75;0.75;;;;;;;;;;5091576;28;20039;-72
2023/03/12 01:35:04;;;;;;;0.10;0.10;;;;;;;;;;5092514;28;20028;-73
2023/03/12 01:37:31;;;;;;;0.43;0.43;;;;;;;;;;5092728;28;20062;-72
2023/03/12 01:39:56;;;;;;;0.40;0.40;;;;;;;;;;5090561;28;20050;-73
2023/03/12 01:42:21;;;;;;;0.25;0.25;;;;;;;;;;5094924;28;20106;-72
2023/03/12 01:44:50;;;;;;;0.22;0.22;;;;;;;;;;5076615;28;20122;-72
2023/03/12 01:47:15;;;;;;;1.20;1.20;;;;;;;;;;5095000;28;20039;-72
2023/03/12 01:49:41;;;;;;;0.10;0.10;;;;;;;;;;5094768;28;20024;-72
2023/03/12 01:52:09;;;;;;;0.30;0.30;;;;;;;;;;5094051;28;20496;-72
2023/03/12 01:54:53;;;;;;;0.13;0.13;;;;;;;;;;5093682;28;20032;-72
2023/03/12 01:57:24;;;;;;;0.10;0.10;;;;;;;;;;5093762;28;20039;-72
2023/03/12 01:59:55;;;;;;;0.40;0.40;;;;;;;;;;5093523;28;20446;-72
2023/03/12 02:02:25;;;;;;;0.10;0.10;;;;;;;;;;5093245;28;20040;-72
2023/03/12 02:04:57;;;;;;;0.10;0.10;;;;;;;;;;5076663;28;20039;-72
2023/03/12 02:07:23;;;;;;;0.10;0.10;;;;;;;;;;5093542;28;20028;-72
2023/03/12 02:09:48;;;;;;;0.10;0.10;;;;;;;;;;5092849;28;20028;-72
2023/03/12 02:12:14;;;;;;;0.75;0.73;;;;;;;;;;5094254;28;20071;-71
2023/03/12 02:14:41;;;;;;;0.20;0.20;;;;;;;;;;5094306;28;20043;-72
2023/03/12 02:17:07;;;;;;;0.25;0.25;;;;;;;;;;5093089;28;20442;-72
2023/03/12 02:19:45;;;;;;;0.10;0.10;;;;;;;;;;5094395;28;20081;-72
2023/03/12 02:22:11;;;;;;;0.10;0.10;;;;;;;;;;5092921;28;20031;-72
2023/03/12 02:24:56;;;;;;;0.10;0.10;;;;;;;;;;5094022;28;20044;-73
2023/03/12 02:27:22;;;;;;;0.10;0.10;;;;;;;;;;5093265;28;20073;-72
2023/03/12 02:29:48;;;;;;;0.00;0.00;;;;;;;;;;5094310;28;20028;-73
2023/03/12 02:32:25;;;;;;;0.30;0.30;;;;;;;;;;5093064;28;20035;-72
2023/03/12 02:34:50;;;;;;;0.40;0.40;;;;;;;;;;5092924;28;20379;-72
2023/03/12 02:37:16;;;;;;;0.57;0.57;;;;;;;;;;5094089;28;20024;-72
2023/03/12 02:39:43;;;;;;;0.10;0.10;;;;;;;;;;5092607;28;20032;-73
2023/03/12 02:42:08;;;;;;;2.13;2.03;;;;;;;;;;5076123;28;20353;-72
2023/03/12 02:44:36;;;;;;;0.10;0.10;;;;;;;;;;5092295;28;20043;-72
2023/03/12 02:47:01;;;;;;;0.30;0.30;;;;;;;;;;5092631;28;20032;-72
2023/03/12 02:49:28;;;;;;;0.10;0.10;;;;;;;;;;5092786;28;20028;-72
2023/03/12 02:51:54;;;;;;;0.10;0.10;;;;;;;;;;5093717;28;20020;-72
2023/03/12 02:54:20;;;;;;;0.10;0.10;;;;;;;;;;5092362;28;20059;-73
2023/03/12 02:56:46;;;;;;;0.25;0.25;;;;;;;;;;5093791;28;20023;-72
2023/03/12 02:59:13;;;;;;;0.20;0.20;;;;;;;;;;5092523;28;20032;-72
2023/03/12 03:01:41;;;;;;;0.10;0.10;;;;;;;;;;5092218;28;20024;-72
2023/03/12 03:04:07;;;;;;;0.13;0.13;;;;;;;;;;5092118;28;20089;-72
2023/03/12 03:06:34;;;;;;;0.20;0.20;;;;;;;;;;5093522;28;20028;-72
2023/03/12 03:08:59;;;;;;;0.10;0.10;;;;;;;;;;5074798;28;20036;-72
2023/03/12 03:11:25;;;;;;;1.00;1.00;;;;;;;;;;5093507;28;20153;-72
2023/03/12 03:13:54;;;;;;;0.35;0.35;;;;;;;;;;5093585;28;20024;-72
2023/03/12 03:16:20;;;;;;;0.20;0.20;;;;;;;;;;5092307;28;20059;-72
2023/03/12 03:18:45;;;;;;;0.20;0.20;;;;;;;;;;5092131;28;20052;-72
2023/03/12 03:21:15;;;;;;;0.35;0.35;;;;;;;;;;5091942;28;20028;-72
2023/03/12 03:23:45;;;;;;;0.10;0.10;;;;;;;;;;5075002;28;20081;-72
2023/03/12 03:26:11;;;;;;;0.20;0.20;;;;;;;;;;5093554;28;20036;-72
2023/03/12 03:28:37;;;;;;;1.05;0.95;;;;;;;;;;5092197;28;20024;-72
2023/03/12 03:31:02;;;;;;;0.10;0.10;;;;;;;;;;5091817;28;20028;-72
2023/03/12 03:33:34;;;;;;;0.30;0.30;;;;;;;;;;5093402;28;20043;-72
2023/03/12 03:36:00;;;;;;;0.70;0.70;;;;;;;;;;5091280;28;20028;-72
2023/03/12 03:38:28;;;;;;;1.65;1.30;;;;;;;;;;5091805;28;20032;-72
2023/03/12 03:40:54;;;;;;;0.20;0.20;;;;;;;;;;5092366;28;20062;-72
2023/03/12 03:43:20;;;;;;;0.10;0.10;;;;;;;;;;5093268;28;20119;-73
2023/03/12 03:45:46;;;;;;;0.20;0.20;;;;;;;;;;5093144;28;20119;-72
2023/03/12 03:48:13;;;;;;;0.10;0.10;;;;;;;;;;5091927;28;20128;-72
2023/03/12 03:50:39;;;;;;;2.30;1.35;;;;;;;;;;5091574;28;20455;-73
2023/03/12 03:53:05;;;;;;;0.10;0.10;;;;;;;;;;5092972;28;20036;-74
2023/03/12 03:55:34;;;;;;;0.10;0.10;;;;;;;;;;5093309;28;20086;-72
2023/03/12 03:57:59;;;;;;;0.20;0.20;;;;;;;;;;5091420;28;20119;-72
2023/03/12 04:00:25;;;;;;;0.32;0.32;;;;;;;;;;5092058;28;20059;-72
2023/03/12 04:02:51;;;;;;;0.43;0.43;;;;;;;;;;5088048;28;20491;-72
2023/03/12 04:05:18;;;;;;;0.10;0.10;;;;;;;;;;5088965;28;20054;-72
2023/03/12 04:07:45;;;;;;;3.90;3.72;;;;;;;;;;5087699;28;20472;-72
2023/03/12 04:10:11;;;;;;;0.10;0.10;;;;;;;;;;5087952;28;20024;-74
2023/03/12 04:12:37;;;;;;;0.10;0.10;;;;;;;;;;5089413;28;20024;-73
2023/03/12 04:15:02;;;;;;;0.75;0.75;;;;;;;;;;5089515;28;20434;-72
2023/03/12 04:17:28;;;;;;;0.75;0.75;;;;;;;;;;5087819;28;20043;-72
2023/03/12 04:19:55;;;;;;;0.65;0.65;;;;;;;;;;5088780;28;20036;-75
2023/03/12 04:22:21;;;;;;;0.80;0.80;;;;;;;;;;5070835;28;20540;-72
2023/03/12 04:24:46;;;;;;;0.22;0.22;;;;;;;;;;5088650;28;20444;-72
2023/03/12 04:27:11;;;;;;;0.10;0.10;;;;;;;;;;5087602;28;20086;-72
2023/03/12 04:29:40;;;;;;;0.10;0.10;;;;;;;;;;5087803;28;20032;-72
2023/03/12 04:32:06;;;;;;;0.25;0.25;;;;;;;;;;5088881;28;20039;-72
2023/03/12 04:34:32;;;;;;;0.20;0.20;;;;;;;;;;5091180;28;20024;-72
2023/03/12 04:37:02;;;;;;;0.10;0.10;;;;;;;;;;5091036;28;20036;-73
2023/03/12 04:39:28;;;;;;;0.10;0.10;;;;;;;;;;5091144;28;20032;-72
2023/03/12 04:41:54;;;;;;;0.73;0.73;;;;;;;;;;5091344;28;20150;-72
2023/03/12 04:44:19;;;;;;;0.30;0.30;;;;;;;;;;5092309;28;20077;-72
2023/03/12 04:46:45;;;;;;;0.10;0.10;;;;;;;;;;5091265;28;20864;-72
2023/03/12 04:49:14;;;;;;;0.80;0.80;;;;;;;;;;5091174;28;20028;-73
2023/03/12 04:51:41;;;;;;;0.17;0.17;;;;;;;;;;5091333;28;20069;-74
2023/03/12 04:54:06;;;;;;;2.47;2.30;;;;;;;;;;5091157;28;20418;-72
2023/03/12 04:56:33;;;;;;;0.10;0.10;;;;;;;;;;5091125;28;20026;-72
2023/03/12 04:58:59;;;;;;;0.73;0.73;;;;;;;;;;5091186;28;20452;-72
2023/03/12 05:01:30;;;;;;;0.10;0.10;;;;;;;;;;5090325;28;20028;-72
2023/03/12 05:03:56;;;;;;;0.10;0.10;;;;;;;;;;5090363;28;20029;-71
2023/03/12 05:06:22;;;;;;;0.10;0.10;;;;;;;;;;5090140;28;20036;-73
2023/03/12 05:08:48;;;;;;;0.10;0.10;;;;;;;;;;5073505;28;20051;-73
2023/03/12 05:11:14;;;;;;;1.17;1.17;;;;;;;;;;5073216;28;20055;-73
2023/03/12 05:13:40;;;;;;;1.65;1.55;;;;;;;;;;5073261;28;20078;-73
2023/03/12 05:16:06;;;;;;;0.10;0.10;;;;;;;;;;5090182;28;20044;-73
2023/03/12 05:18:31;;;;;;;0.15;0.15;;;;;;;;;;5073590;28;20020;-73
2023/03/12 05:20:58;;;;;;;2.30;2.20;;;;;;;;;;5090167;28;20521;-73
2023/03/12 05:23:24;;;;;;;0.10;0.10;;;;;;;;;;5091487;28;20028;-72
2023/03/12 05:25:49;;;;;;;0.10;0.10;;;;;;;;;;5089764;28;20101;-75
2023/03/12 05:28:14;;;;;;;0.20;0.20;;;;;;;;;;5090001;28;20049;-72
2023/03/12 05:30:40;;;;;;;0.10;0.10;;;;;;;;;;5089979;28;20024;-72
2023/03/12 05:33:06;;;;;;;0.98;0.95;;;;;;;;;;5089903;28;20368;-72
2023/03/12 05:35:31;;;;;;;0.20;0.20;;;;;;;;;;5089306;28;20035;-72
2023/03/12 05:37:57;;;;;;;0.68;0.68;;;;;;;;;;5091278;28;20008;-72
2023/03/12 05:40:22;;;;;;;0.20;0.20;;;;;;;;;;5090151;28;20031;-73
2023/03/12 05:42:48;;;;;;;0.10;0.10;;;;;;;;;;5091363;28;20054;-72
2023/03/12 05:45:13;;;;;;;0.10;0.10;;;;;;;;;;5090867;28;20028;-72
2023/03/12 05:47:43;;;;;;;0.10;0.10;;;;;;;;;;5089704;28;20148;-71
2023/03/12 05:50:10;;;;;;;0.20;0.20;;;;;;;;;;5090712;28;20388;-71
2023/03/12 05:52:36;;;;;;;0.10;0.10;;;;;;;;;;5072748;28;20024;-74
2023/03/12 05:55:01;;;;;;;0.20;0.20;;;;;;;;;;5090843;28;20028;-74
2023/03/12 05:57:27;;;;;;;0.10;0.10;;;;;;;;;;5088971;28;20050;-72
2023/03/12 05:59:53;;;;;;;0.20;0.20;;;;;;;;;;5089530;28;20020;-72
2023/03/12 06:02:19;;;;;;;0.10;0.10;;;;;;;;;;5089445;28;20058;-71
2023/03/12 06:04:44;;;;;;;0.10;0.10;;;;;;;;;;5089098;28;20134;-72
2023/03/12 06:07:10;;;;;;;0.10;0.10;;;;;;;;;;5089251;28;20380;-74
2023/03/12 06:09:36;;;;;;;0.20;0.20;;;;;;;;;;5072423;28;20019;-73
2023/03/12 06:12:02;;;;;;;0.10;0.10;;;;;;;;;;5089633;28;20028;-72
2023/03/12 06:14:29;;;;;;;0.10;0.10;;;;;;;;;;5089141;28;20039;-72
2023/03/12 06:16:56;;;;;;;0.63;0.63;;;;;;;;;;5090904;28;20112;-72
2023/03/12 06:19:22;;;;;;;0.10;0.10;;;;;;;;;;5089104;28;20107;-72
2023/03/12 06:21:48;;;;;;;0.10;0.10;;;;;;;;;;5072746;28;20066;-72
2023/03/12 06:24:14;;;;;;;5.40;2.47;;;;;;;;;;5087662;28;20503;-73
2023/03/12 06:26:55;;;;;;;0.15;0.15;;;;;;;;;;5087470;28;20064;-72
2023/03/12 06:29:20;;;;;;;0.10;0.10;;;;;;;;;;5087453;28;20066;-73
2023/03/12 06:31:47;;;;;;;0.00;0.00;;;;;;;;;;5090454;28;20028;-73
2023/03/12 06:34:12;;;;;;;0.10;0.10;;;;;;;;;;5090306;28;20045;-71
2023/03/12 06:36:38;;;;;;;0.10;0.10;;;;;;;;;;5090368;28;20377;-73
2023/03/12 06:39:08;;;;;;;0.10;0.10;;;;;;;;;;5090409;28;20020;-73
2023/03/12 06:41:34;;;;;;;0.17;0.17;;;;;;;;;;5088988;28;20020;-72
2023/03/12 06:44:00;;;;;;;0.20;0.20;;;;;;;;;;5090510;28;20043;-73
2023/03/12 06:46:26;;;;;;;0.10;0.10;;;;;;;;;;5090055;28;20101;-72
2023/03/12 06:48:51;;;;;;;0.35;0.35;;;;;;;;;;5090388;28;20451;-75
2023/03/12 06:51:17;;;;;;;0.10;0.10;;;;;;;;;;5090021;28;20028;-72
2023/03/12 06:53:43;;;;;;;0.10;0.10;;;;;;;;;;5090034;28;20028;-72
2023/03/12 06:56:09;;;;;;;0.30;0.30;;;;;;;;;;5071353;28;20055;-72
2023/03/12 06:58:34;;;;;;;0.73;0.73;;;;;;;;;;5089684;28;20059;-72
2023/03/12 07:00:59;;;;;;;0.63;0.63;;;;;;;;;;5089916;28;20028;-72
2023/03/12 07:03:25;;;;;;;1.00;0.55;;;;;;;;;;5089115;28;20024;-71
2023/03/12 07:05:50;;;;;;;0.88;0.68;;;;;;;;;;5089621;28;20391;-73
2023/03/12 07:08:17;;;;;;;0.10;0.10;;;;;;;;;;5089598;28;20055;-72
2023/03/12 07:10:43;;;;;;;1.52;1.48;;;;;;;;;;5090054;28;20062;-72
2023/03/12 07:13:08;;;;;;;0.77;0.77;;;;;;;;;;5088320;28;20048;-73
2023/03/12 07:15:34;;;;;;;0.43;0.43;;;;;;;;;;5089509;28;20039;-73
2023/03/12 07:18:00;;;;;;;4.60;1.50;;;;;;;;;;5088365;28;20024;-72
2023/03/12 07:20:25;;;;;;;0.10;0.10;;;;;;;;;;5089697;28;20020;-73
2023/03/12 07:22:50;;;;;;;0.10;0.10;;;;;;;;;;5089666;28;20024;-72
2023/03/12 07:25:16;;;;;;;0.10;0.10;;;;;;;;;;5089145;28;20395;-72
2023/03/12 07:27:41;;;;;;;0.60;0.52;;;;;;;;;;5089777;28;20035;-72
2023/03/12 07:30:07;;;;;;;7.55;4.57;;;;;;;;;;5087939;28;20036;-72
2023/03/12 07:32:34;;;;;;;0.20;0.20;;;;;;;;;;5069742;28;20024;-73
2023/03/12 07:34:59;;;;;;;0.40;0.40;;;;;;;;;;5087493;28;20035;-74
2023/03/12 07:37:24;;;;;;;0.10;0.10;;;;;;;;;;5088375;28;20019;-72
2023/03/12 07:39:51;;;;;;;0.10;0.10;;;;;;;;;;5071370;28;20024;-72
2023/03/12 07:42:17;;;;;;;0.10;0.10;;;;;;;;;;5089112;28;20024;-72
2023/03/12 07:44:44;;;;;;;0.10;0.10;;;;;;;;;;5087984;28;20087;-73
2023/03/12 07:47:10;;;;;;;0.10;0.10;;;;;;;;;;5088952;28;20025;-72
2023/03/12 07:49:35;;;;;;;0.10;0.10;;;;;;;;;;5087923;28;20035;-73
2023/03/12 07:52:01;;;;;;;1.95;1.85;;;;;;;;;;5089509;28;20028;-72
2023/03/12 07:54:29;;;;;;;2.15;2.05;;;;;;;;;;5087761;28;20043;-73
2023/03/12 07:56:55;;;;;;;0.10;0.10;;;;;;;;;;5089497;28;20107;-72
2023/03/12 07:59:21;;;;;;;0.20;0.20;;;;;;;;;;5089941;28;20168;-71
2023/03/12 08:01:46;;;;;;;0.22;0.22;;;;;;;;;;5088355;28;20051;-72
2023/03/12 08:04:12;;;;;;;0.10;0.10;;;;;;;;;;5089182;28;20043;-72
2023/03/12 08:06:41;;;;;;;0.25;0.25;;;;;;;;;;5089426;28;20024;-72
2023/03/12 08:09:07;;;;;;;0.20;0.20;;;;;;;;;;5092982;28;20016;-73
2023/03/12 08:11:33;;;;;;;0.10;0.10;;;;;;;;;;5092983;28;20043;-73
2023/03/12 08:13:58;;;;;;;1.98;1.75;;;;;;;;;;5091892;28;20032;-72
2023/03/12 08:16:24;;;;;;;0.17;0.17;;;;;;;;;;5092714;28;20024;-71
2023/03/12 08:18:49;;;;;;;0.20;0.20;;;;;;;;;;5093072;28;20032;-71
2023/03/12 08:21:15;;;;;;;0.10;0.10;;;;;;;;;;5092975;28;20367;-72
2023/03/12 08:23:41;;;;;;;0.10;0.10;;;;;;;;;;5092643;28;20446;-71
2023/03/12 08:26:06;;;;;;;0.10;0.10;;;;;;;;;;5092699;28;20127;-71
2023/03/12 08:28:31;;;;;;;0.10;0.10;;;;;;;;;;5093316;28;20036;-72
2023/03/12 08:30:58;;;;;;;0.30;0.30;;;;;;;;;;5091254;28;20032;-72
2023/03/12 08:33:23;;;;;;;0.20;0.20;;;;;;;;;;5090979;28;20074;-72
2023/03/12 08:35:49;;;;;;;0.20;0.20;;;;;;;;;;5090919;28;20471;-72
2023/03/12 08:38:14;;;;;;;0.30;0.30;;;;;;;;;;5092771;28;20024;-72
2023/03/12 08:40:40;;;;;;;2.53;2.40;;;;;;;;;;5092475;28;20472;-73
2023/03/12 08:43:06;;;;;;;0.52;0.52;;;;;;;;;;5092124;28;20020;-72
2023/03/12 08:45:32;;;;;;;0.20;0.20;;;;;;;;;;5092126;28;20085;-73
2023/03/12 08:47:57;;;;;;;0.20;0.20;;;;;;;;;;5092667;28;20036;-73
2023/03/12 08:50:25;;;;;;;0.20;0.20;;;;;;;;;;5091054;28;20049;-71
2023/03/12 08:52:50;;;;;;;6.10;5.70;;;;;;;;;;5092417;28;20036;-71
2023/03/12 08:55:16;;;;;;;0.17;0.17;;;;;;;;;;5092015;28;20024;-74
2023/03/12 08:57:41;;;;;;;1.55;0.50;;;;;;;;;;5091433;28;20404;-73
2023/03/12 09:00:10;;;;;;;0.40;0.40;;;;;;;;;;5092624;28;20157;-72
2023/03/12 09:02:38;;;;;;;0.90;0.40;;;;;;;;;;5092091;28;20077;-72
2023/03/12 09:05:04;;;;;;;0.20;0.20;;;;;;;;;;5091117;28;20433;-73
2023/03/12 09:07:30;;;;;;;0.20;0.20;;;;;;;;;;5090802;28;20040;-72
2023/03/12 09:09:55;;;;;;;0.20;0.20;;;;;;;;;;5091364;28;20032;-72
2023/03/12 09:12:21;;;;;;;0.20;0.20;;;;;;;;;;5092170;28;20043;-73
2023/03/12 09:14:46;;;;;;;0.17;0.17;;;;;;;;;;5091819;28;20024;-72
2023/03/12 09:17:11;;;;;;;0.20;0.20;;;;;;;;;;5090985;28;20365;-72
2023/03/12 09:19:38;;;;;;;0.82;0.77;;;;;;;;;;5089750;28;20028;-73
2023/03/12 09:22:03;;;;;;;0.20;0.20;;;;;;;;;;5091131;28;20024;-74
2023/03/12 09:24:29;;;;;;;0.30;0.30;;;;;;;;;;5090980;28;20400;-73
2023/03/12 09:26:54;;;;;;;0.13;0.13;;;;;;;;;;5090255;28;20547;-72
2023/03/12 09:29:20;;;;;;;0.25;0.25;;;;;;;;;;5091331;28;20038;-72
2023/03/12 09:31:45;;;;;;;0.20;0.20;;;;;;;;;;5088264;28;20036;-73
2023/03/12 09:34:11;;;;;;;0.20;0.20;;;;;;;;;;5091531;28;20035;-72
2023/03/12 09:36:36;;;;;;;0.20;0.20;;;;;;;;;;5091249;28;20031;-72
2023/03/12 09:39:02;;;;;;;0.20;0.20;;;;;;;;;;5089345;28;20036;-73
2023/03/12 09:41:32;;;;;;;0.30;0.30;;;;;;;;;;5090400;28;20024;-72
2023/03/12 09:44:06;;;;;;;0.15;0.15;;;;;;;;;;5072965;28;20112;-72
2023/03/12 09:46:35;;;;;;;0.98;0.57;;;;;;;;;;5090789;28;20044;-71
2023/03/12 09:49:04;;;;;;;0.20;0.20;;;;;;;;;;5091362;28;20020;-73
2023/03/12 09:51:32;;;;;;;0.23;0.23;;;;;;;;;;5090072;28;20039;-73
2023/03/12 09:54:02;;;;;;;0.30;0.30;;;;;;;;;;5090825;28;20681;-72
2023/03/12 09:56:28;;;;;;;0.45;0.45;;;;;;;;;;5090864;28;20028;-72
2023/03/12 09:58:55;;;;;;;0.20;0.20;;;;;;;;;;5089603;28;20046;-72
2023/03/12 10:01:26;;;;;;;0.20;0.20;;;;;;;;;;5072849;28;20012;-72
2023/03/12 10:04:00;;;;;;;0.20;0.20;;;;;;;;;;5089452;28;20064;-72
2023/03/12 10:06:28;;;;;;;0.20;0.20;;;;;;;;;;5091002;28;20127;-72
2023/03/12 10:08:56;;;;;;;0.40;0.40;;;;;;;;;;5090812;28;20768;-73
2023/03/12 10:11:28;;;;;;;0.20;0.20;;;;;;;;;;5090663;28;20031;-72
2023/03/12 10:13:56;;;;;;;0.28;0.28;;;;;;;;;;5090713;28;20434;-72
2023/03/12 10:16:45;;;;;;;1.60;0.63;;;;;;;;;;5090561;28;20035;-72
2023/03/12 10:19:16;;;;;;;0.25;0.25;;;;;;;;;;5090616;28;20031;-72
2023/03/12 10:21:41;;;;;;;0.20;0.20;;;;;;;;;;5089554;28;20028;-72
2023/03/12 10:24:10;;;;;;;6.15;1.83;;;;;;;;;;5089732;28;20040;-71
2023/03/12 10:26:41;;;;;;;2.80;1.17;;;;;;;;;;5090526;28;20035;-71
2023/03/12 10:29:16;;;;;;;0.25;0.25;;;;;;;;;;5089743;28;20033;-72
2023/03/12 10:31:44;;;;;;;0.93;0.45;;;;;;;;;;5090257;28;20039;-72
2023/03/12 10:34:36;;;;;;;0.20;0.20;;;;;;;;;;5090776;28;20112;-71
2023/03/12 10:37:20;;;;;;;0.30;0.30;;;;;;;;;;5089951;28;20458;-72
2023/03/12 10:39:46;;;;;;;0.20;0.20;;;;;;;;;;5090035;28;20024;-70
2023/03/12 10:42:16;;;;;;;0.20;0.20;;;;;;;;;;5089587;28;20038;-70
2023/03/12 10:44:41;;;;;;;0.38;0.38;;;;;;;;;;5089720;28;20027;-72
2023/03/12 10:47:15;;;;;;;2.03;1.35;;;;;;;;;;5088896;28;20023;-72
2023/03/12 10:49:45;;;;;;;2.22;1.45;;;;;;;;;;5088327;28;20028;-73
2023/03/12 10:52:21;;;;;;;0.20;0.20;;;;;;;;;;5069926;28;20118;-74
2023/03/12 10:54:48;;;;;;;0.40;0.40;;;;;;;;;;5088001;28;20115;-72
2023/03/12 10:57:14;;;;;;;3.38;0.80;;;;;;;;;;5087893;28;20118;-70
2023/03/12 10:59:47;;;;;;;4.63;1.70;;;;;;;;;;5087200;28;20544;-71
2023/03/12 11:02:31;;;;;;;3.47;0.85;;;;;;;;;;5086108;28;20028;-71
2023/03/12 11:04:57;;;;;;;2.47;0.95;;;;;;;;;;5086627;28;20036;-72
2023/03/12 11:07:35;;;;;;;0.20;0.20;;;;;;;;;;5070750;28;20063;-72
2023/03/12 11:10:06;;;;;;;0.20;0.20;;;;;;;;;;5087478;28;20032;-72
2023/03/12 11:12:31;;;;;;;1.42;0.85;;;;;;;;;;5087523;28;20028;-72
2023/03/12 11:14:57;;;;;;;0.20;0.20;;;;;;;;;;5085928;28;20529;-72
2023/03/12 11:17:27;;;;;;;1.67;1.02;;;;;;;;;;5086978;28;20762;-72
2023/03/12 11:19:52;;;;;;;0.30;0.30;;;;;;;;;;5069170;28;20051;-72
2023/03/12 11:22:29;;;;;;;0.20;0.20;;;;;;;;;;5086047;28;20044;-71
2023/03/12 11:24:55;;;;;;;0.20;0.20;;;;;;;;;;5069158;28;20048;-72
2023/03/12 11:27:29;;;;;;;0.20;0.20;;;;;;;;;;5086952;28;20092;-70
2023/03/12 11:29:54;;;;;;;0.20;0.20;;;;;;;;;;5087541;28;20028;-71
2023/03/12 11:32:27;;;;;;;0.20;0.20;;;;;;;;;;5087369;28;20081;-72
2023/03/12 11:34:53;;;;;;;0.40;0.40;;;;;;;;;;5087207;28;20110;-71
2023/03/12 11:37:38;;;;;;;2.92;1.02;;;;;;;;;;5086608;28;20181;-70
2023/03/12 11:40:09;;;;;;;0.40;0.40;;;;;;;;;;5086046;28;20506;-72
2023/03/12 11:42:38;;;;;;;2.15;1.17;;;;;;;;;;5091078;28;20035;-71
2023/03/12 11:45:03;;;;;;;7.43;1.88;;;;;;;;;;5090381;28;20032;-72
2023/03/12 11:47:35;;;;;;;6.60;1.45;;;;;;;;;;5090966;28;20039;-74
2023/03/12 11:50:09;;;;;;;8.07;2.42;;;;;;;;;;5091183;28;20494;-71
2023/03/12 11:52:35;;;;;;;4.00;1.85;;;;;;;;;;5093054;28;20058;-70
2023/03/12 11:55:00;;;;;;;1.00;0.90;;;;;;;;;;5093437;28;20055;-70
2023/03/12 11:57:25;;;;;;;8.40;2.30;;;;;;;;;;5093254;28;20074;-74
2023/03/12 12:00:12;;;;;;;9.05;2.00;;;;;;;;;;5091762;28;20024;-72
2023/03/12 12:02:38;;;;;;;8.88;2.85;;;;;;;;;;5072255;28;20054;-69
2023/03/12 12:05:21;;;;;;;9.18;2.22;;;;;;;;;;5071592;28;20037;-71
2023/03/12 12:07:56;;;;;;;4.07;1.70;;;;;;;;;;5072419;28;20036;-70
2023/03/12 12:10:51;;;;;;;1.67;0.60;;;;;;;;;;5088367;28;20028;-69
2023/03/12 12:13:34;;;;;;;2.10;0.40;;;;;;;;;;5091990;28;20054;-70
2023/03/12 12:16:27;;;;;;;2.90;1.52;;;;;;;;;;5093018;28;20502;-69
2023/03/12 12:18:55;;;;;;;2.55;1.40;;;;;;;;;;5083613;28;20399;-68
2023/03/12 12:21:24;;;;;;;0.32;0.32;;;;;;;;;;5091613;28;20012;-69
2023/03/12 12:23:56;;;;;;;0.57;0.53;;;;;;;;;;5092591;28;20032;-71
2023/03/12 12:26:21;;;;;;;0.93;0.65;;;;;;;;;;5093017;28;20044;-70
2023/03/12 12:28:46;;;;;;;0.20;0.20;;;;;;;;;;5091762;28;20099;-75
2023/03/12 12:31:12;;;;;;;4.80;1.35;;;;;;;;;;5090917;28;20081;-72
2023/03/12 12:33:56;;;;;;;10.43;2.03;;;;;;;;;;5092715;28;20020;-69
2023/03/12 12:36:23;;;;;;;3.40;1.33;;;;;;;;;;5091240;28;20024;-70
2023/03/12 12:38:54;;;;;;;4.13;0.90;;;;;;;;;;5092391;28;20024;-70
2023/03/12 12:41:19;;;;;;;4.80;1.38;;;;;;;;;;5092382;28;20032;-69
2023/03/12 12:44:05;;;;;;;0.55;0.45;;;;;;;;;;5092900;28;20034;-71
2023/03/12 12:46:36;;;;;;;2.72;1.60;;;;;;;;;;5091769;28;20043;-69
2023/03/12 12:49:07;;;;;;;6.15;1.83;;;;;;;;;;5089453;28;20392;-69
2023/03/12 12:51:38;;;;;;;6.00;2.33;;;;;;;;;;5086637;28;20036;-72
2023/03/12 12:54:22;;;;;;;5.30;2.28;;;;;;;;;;5087901;28;20024;-70
2023/03/12 12:57:04;;;;;;;1.83;0.95;;;;;;;;;;5089369;28;20096;-70
2023/03/12 12:59:38;;;;;;;3.97;1.65;;;;;;;;;;5089239;28;20028;-70
2023/03/12 13:02:13;;;;;;;8.43;1.30;;;;;;;;;;5091865;28;20132;-70
2023/03/12 13:04:39;;;;;;;5.95;0.93;;;;;;;;;;5090947;28;20093;-69
2023/03/12 13:07:04;;;;;;;15.82;2.13;;;;;;;;;;5091810;28;20480;-70
2023/03/12 13:09:51;;;;;;;6.65;1.98;;;;;;;;;;5090739;28;20036;-69
2023/03/12 13:12:28;;;;;;;0.52;0.25;;;;;;;;;;5091628;28;20027;-70
2023/03/12 13:14:55;;;;;;;3.20;0.93;;;;;;;;;;5092100;28;20436;-70
2023/03/12 13:17:26;;;;;;;3.78;1.10;;;;;;;;;;5073286;28;20103;-71
2023/03/12 13:19:57;;;;;;;4.60;1.88;;;;;;;;;;5090396;28;20371;-70
2023/03/12 13:22:29;;;;;;;4.20;1.05;;;;;;;;;;5073506;28;20067;-71
2023/03/12 13:25:14;;;;;;;0.30;0.30;;;;;;;;;;5090282;28;20052;-70
2023/03/12 13:27:40;;;;;;;9.07;2.38;;;;;;;;;;5072646;28;20407;-70
2023/03/12 13:30:24;;;;;;;3.03;1.63;;;;;;;;;;5090836;28;20044;-70
2023/03/12 13:32:49;;;;;;;7.10;1.83;;;;;;;;;;5092035;28;20059;-70
2023/03/12 13:35:14;;;;;;;10.82;2.30;;;;;;;;;;5091385;28;20499;-69
2023/03/12 13:37:45;;;;;;;12.15;2.72;;;;;;;;;;5091278;28;20027;-68
2023/03/12 13:40:29;;;;;;;2.13;1.17;;;;;;;;;;5090254;28;20028;-69
2023/03/12 13:43:07;;;;;;;3.42;0.95;;;;;;;;;;5073599;28;20031;-68
2023/03/12 13:45:34;;;;;;;5.00;1.48;;;;;;;;;;5089548;28;20052;-70
2023/03/12 13:48:01;;;;;;;12.40;3.42;;;;;;;;;;5072978;28;20122;-69
2023/03/12 13:50:27;;;;;;;5.82;1.30;;;;;;;;;;5073229;28;20203;-69
2023/03/12 13:53:03;;;;;;;10.45;2.22;;;;;;;;;;5091260;28;20028;-68
2023/03/12 13:55:30;;;;;;;5.22;1.70;;;;;;;;;;5089791;28;20032;-68
2023/03/12 13:58:08;;;;;;;6.03;2.00;;;;;;;;;;5072960;28;20112;-69
2023/03/12 14:00:45;;;;;;;4.68;1.20;;;;;;;;;;5091163;28;20028;-70
2023/03/12 14:03:13;;;;;;;0.30;0.30;;;;;;;;;;5089699;28;20032;-72
2023/03/12 14:05:47;;;;;;;6.05;1.50;;;;;;;;;;5089532;28;20073;-69
2023/03/12 14:08:16;;;;;;;3.03;0.85;;;;;;;;;;5089893;28;20024;-70
2023/03/12 14:10:50;;;;;;;5.20;1.73;;;;;;;;;;5091289;28;20016;-70
2023/03/12 14:13:16;;;;;;;12.13;2.33;;;;;;;;;;5090779;28;20132;-69
2023/03/12 14:15:47;;;;;;;9.80;1.65;;;;;;;;;;5089808;28;20486;-69
2023/03/12 14:18:16;;;;;;;2.40;0.65;;;;;;;;;;5089111;28;20039;-69
2023/03/12 14:20:48;;;;;;;8.20;2.40;;;;;;;;;;5072571;28;20115;-69
2023/03/12 14:23:15;;;;;;;6.15;1.55;;;;;;;;;;5088986;28;20441;-69
2023/03/12 14:25:42;;;;;;;6.32;1.50;;;;;;;;;;5090279;28;20279;-70
2023/03/12 14:28:22;;;;;;;3.83;1.73;;;;;;;;;;5090651;28;20030;-69
2023/03/12 14:30:47;;;;;;;;;;;;;;;;;;5091034;28;20055;-70
2023/03/12 14:33:13;;;;;;;6.90;1.80;;;;;;;;;;5089557;28;19988;-69
2023/03/12 14:35:52;;;;;;;10.50;2.97;;;;;;;;;;5088992;28;20031;-69
2023/03/12 14:38:25;;;;;;;5.47;1.63;;;;;;;;;;5090726;28;20028;-69
2023/03/12 14:41:05;;;;;;;22.58;3.13;;;;;;;;;;5072101;28;20487;-69
2023/03/12 14:43:32;;;;;;;7.05;2.47;;;;;;;;;;5072331;28;20028;-70
2023/03/12 14:46:00;;;;;;;12.40;2.78;;;;;;;;;;5089223;28;20036;-69
2023/03/12 14:48:30;;;;;;;16.52;3.38;;;;;;;;;;5071812;28;20019;-69